createdAt,value
2019-05-03T00:02:39.314Z,9.70
2019-05-03T00:05:26.587Z,9.70
2019-05-03T00:08:04.178Z,9.70
2019-05-03T00:10:33.622Z,9.70
2019-05-03T00:13:02.875Z,9.70
2019-05-03T00:15:57.362Z,9.70
2019-05-03T00:18:26.600Z,9.70
2019-05-03T00:20:55.921Z,9.60
2019-05-03T00:23:25.247Z,9.60
2019-05-03T00:25:54.507Z,9.60
2019-05-03T00:28:23.760Z,9.60
2019-05-03T00:30:53.045Z,9.70
2019-05-03T00:33:22.640Z,9.70
2019-05-03T00:36:22.118Z,9.60
2019-05-03T00:38:53.537Z,9.70
2019-05-03T00:41:22.803Z,9.60
2019-05-03T00:43:52.113Z,9.60
2019-05-03T00:46:22.041Z,9.50
2019-05-03T00:48:52.471Z,9.50
2019-05-03T00:51:22.578Z,9.50
2019-05-03T00:53:53.108Z,9.40
2019-05-03T00:56:22.692Z,9.40
2019-05-03T00:58:55.809Z,9.30
2019-05-03T01:01:25.065Z,9.30
2019-05-03T01:03:54.324Z,9.20
2019-05-03T01:06:23.663Z,9.20
2019-05-03T01:08:52.929Z,9.10
2019-05-03T01:11:22.428Z,9.10
2019-05-03T01:13:52.343Z,9.10
2019-05-03T01:16:22.807Z,9.10
2019-05-03T01:18:52.446Z,9.10
2019-05-03T01:21:22.545Z,9.00
2019-05-03T01:23:52.553Z,9.00
2019-05-03T01:26:22.841Z,9.00
2019-05-03T01:28:52.541Z,9.00
2019-05-03T01:31:22.724Z,9.00
2019-05-03T01:33:52.639Z,9.00
2019-05-03T01:36:22.940Z,9.00
2019-05-03T01:38:52.975Z,9.00
2019-05-03T01:41:22.742Z,8.90
2019-05-03T01:43:52.580Z,8.80
2019-05-03T01:46:22.864Z,8.80
2019-05-03T01:49:23.351Z,8.80
2019-05-03T01:52:18.702Z,8.70
2019-05-03T01:54:47.957Z,8.60
2019-05-03T01:57:17.298Z,8.50
2019-05-03T01:59:46.526Z,8.40
2019-05-03T02:02:27.939Z,8.50
2019-05-03T02:05:32.018Z,8.40
2019-05-03T02:08:02.089Z,8.40
2019-05-03T02:10:32.152Z,8.20
2019-05-03T02:13:02.091Z,8.20
2019-05-03T02:15:32.672Z,8.20
2019-05-03T02:18:02.701Z,8.10
2019-05-03T02:20:32.456Z,8.00
2019-05-03T02:23:02.747Z,7.90
2019-05-03T02:25:32.484Z,7.90
2019-05-03T02:28:02.034Z,7.80
2019-05-03T02:30:33.275Z,7.70
2019-05-03T02:33:04.137Z,7.70
2019-05-03T02:35:33.582Z,7.60
2019-05-03T02:38:03.527Z,7.70
2019-05-03T02:40:33.919Z,7.60
2019-05-03T02:43:10.929Z,7.50
2019-05-03T02:45:57.687Z,7.50
2019-05-03T02:48:36.232Z,7.50
2019-05-03T02:51:06.636Z,7.40
2019-05-03T02:53:36.053Z,7.40
2019-05-03T02:56:15.057Z,7.40
2019-05-03T02:58:36.488Z,7.30
2019-05-03T03:01:06.825Z,7.40
2019-05-03T03:03:36.710Z,7.30
2019-05-03T03:06:07.381Z,7.30
2019-05-03T03:08:38.629Z,7.20
2019-05-03T03:11:08.804Z,7.20
2019-05-03T03:13:39.550Z,7.10
2019-05-03T03:16:10.146Z,7.10
2019-05-03T03:18:40.699Z,7.20
2019-05-03T03:21:16.036Z,7.20
2019-05-03T03:24:05.901Z,7.20
2019-05-03T03:26:42.108Z,7.10
2019-05-03T03:29:08.664Z,7.10
2019-05-03T03:31:51.375Z,7.00
2019-05-03T03:34:28.021Z,7.00
2019-05-03T03:37:04.235Z,7.00
2019-05-03T03:39:26.709Z,6.90
2019-05-03T03:41:57.461Z,6.90
2019-05-03T03:44:27.819Z,6.80
2019-05-03T03:46:58.933Z,6.80
2019-05-03T03:49:29.795Z,6.80
2019-05-03T03:52:00.869Z,6.80
2019-05-03T03:54:35.464Z,6.80
2019-05-03T03:57:08.110Z,6.90
2019-05-03T03:59:36.899Z,6.90
2019-05-03T04:02:06.256Z,6.90
2019-05-03T04:04:36.137Z,7.00
2019-05-03T04:07:06.754Z,7.00
2019-05-03T04:09:36.901Z,7.00
2019-05-03T04:12:06.511Z,7.00
2019-05-03T04:14:49.058Z,7.10
2019-05-03T04:17:36.338Z,7.10
2019-05-03T04:20:06.481Z,7.10
2019-05-03T04:22:36.315Z,7.20
2019-05-03T04:25:06.024Z,7.20
2019-05-03T04:27:36.554Z,7.20
2019-05-03T04:30:06.311Z,7.30
2019-05-03T04:32:35.986Z,7.40
2019-05-03T04:35:05.610Z,7.40
2019-05-03T04:37:35.966Z,7.40
2019-05-03T04:40:06.296Z,7.40
2019-05-03T04:42:36.015Z,7.40
2019-05-03T04:45:05.980Z,7.40
2019-05-03T04:47:35.868Z,7.50
2019-05-03T04:50:05.737Z,7.60
2019-05-03T04:52:36.191Z,7.60
2019-05-03T04:55:06.564Z,7.70
2019-05-03T04:57:44.234Z,7.80
2019-05-03T05:00:11.439Z,7.80
2019-05-03T05:02:39.766Z,7.80
2019-05-03T05:05:09.175Z,7.80
2019-05-03T05:07:38.565Z,7.90
2019-05-03T05:10:07.969Z,7.90
2019-05-03T05:12:37.236Z,8.00
2019-05-03T05:15:06.718Z,7.90
2019-05-03T05:17:45.736Z,7.90
2019-05-03T05:20:27.499Z,7.90
2019-05-03T05:22:56.777Z,7.90
2019-05-03T05:25:27.942Z,7.90
2019-05-03T05:28:06.920Z,7.90
2019-05-03T05:30:36.239Z,8.00
2019-05-03T05:33:07.265Z,8.00
2019-05-03T05:35:36.774Z,8.10
2019-05-03T05:38:06.075Z,8.10
2019-05-03T05:40:35.462Z,8.10
2019-05-03T05:43:05.063Z,8.10
2019-05-03T05:45:34.784Z,8.10
2019-05-03T05:48:07.972Z,8.20
2019-05-03T05:50:40.055Z,8.20
2019-05-03T05:53:09.423Z,8.20
2019-05-03T05:55:52.680Z,8.20
2019-05-03T05:58:29.273Z,8.30
2019-05-03T06:01:02.222Z,8.30
2019-05-03T06:03:31.574Z,8.40
2019-05-03T06:06:05.264Z,8.40
2019-05-03T06:08:40.977Z,8.40
2019-05-03T06:11:29.237Z,8.50
2019-05-03T06:14:06.819Z,8.50
2019-05-03T06:16:45.543Z,8.50
2019-05-03T06:19:19.051Z,8.50
2019-05-03T06:21:54.822Z,8.50
2019-05-03T06:24:38.938Z,8.50
2019-05-03T06:27:27.174Z,8.50
2019-05-03T06:29:58.672Z,8.50
2019-05-03T06:32:32.020Z,8.60
2019-05-03T06:35:01.247Z,8.60
2019-05-03T06:37:35.434Z,8.60
2019-05-03T06:40:06.166Z,8.70
2019-05-03T06:42:35.627Z,8.80
2019-05-03T06:45:10.479Z,8.90
2019-05-03T06:47:40.296Z,9.10
2019-05-03T06:50:07.421Z,9.30
2019-05-03T06:52:36.846Z,9.30
2019-05-03T06:55:10.640Z,9.40
2019-05-03T06:57:40.129Z,9.40
2019-05-03T07:00:32.321Z,9.60
2019-05-03T07:03:25.160Z,9.70
2019-05-03T07:06:32.601Z,9.80
2019-05-03T07:09:07.584Z,9.60
2019-05-03T07:11:36.802Z,9.70
2019-05-03T07:14:06.090Z,9.80
2019-05-03T07:16:35.582Z,9.80
2019-05-03T07:19:04.930Z,9.80
2019-05-03T07:21:35.409Z,9.80
2019-05-03T07:24:05.413Z,9.70
2019-05-03T07:26:34.868Z,9.50
2019-05-03T07:29:04.980Z,9.50
2019-05-03T07:31:35.352Z,9.50
2019-05-03T07:34:05.213Z,9.60
2019-05-03T07:36:35.601Z,9.50
2019-05-03T07:39:07.605Z,9.50
2019-05-03T07:41:36.855Z,9.50
2019-05-03T07:44:06.111Z,9.50
2019-05-03T07:46:35.492Z,9.50
2019-05-03T07:49:05.249Z,9.60
2019-05-03T07:51:34.907Z,9.80
2019-05-03T07:54:04.848Z,10.30
2019-05-03T07:56:41.863Z,10.70
2019-05-03T07:59:11.130Z,11.10
2019-05-03T08:01:45.620Z,11.10
2019-05-03T08:04:15.403Z,11.20
2019-05-03T08:06:45.058Z,11.50
2019-05-03T08:09:15.281Z,11.50
2019-05-03T08:11:44.699Z,11.40
2019-05-03T08:14:17.723Z,11.60
2019-05-03T08:16:45.601Z,11.60
2019-05-03T08:19:15.315Z,11.40
2019-05-03T08:21:45.283Z,11.40
2019-05-03T08:24:15.054Z,11.40
2019-05-03T08:26:45.292Z,11.30
2019-05-03T08:29:18.549Z,11.00
2019-05-03T08:31:57.165Z,10.90
2019-05-03T08:35:00.606Z,10.90
2019-05-03T08:38:00.915Z,11.00
2019-05-03T08:40:34.976Z,11.10
2019-05-03T08:43:05.158Z,11.30
2019-05-03T08:45:35.103Z,11.20
2019-05-03T08:48:05.561Z,11.20
2019-05-03T08:50:35.100Z,11.30
2019-05-03T08:53:05.245Z,11.30
2019-05-03T08:55:35.261Z,11.30
2019-05-03T08:58:05.247Z,11.20
2019-05-03T09:00:37.226Z,11.10
2019-05-03T09:03:06.579Z,10.90
2019-05-03T09:05:36.133Z,11.20
2019-05-03T09:08:05.920Z,11.50
2019-05-03T09:10:55.888Z,12.00
2019-05-03T09:13:25.295Z,12.50
2019-05-03T09:15:55.289Z,12.90
2019-05-03T09:18:25.772Z,12.80
2019-05-03T09:20:55.616Z,13.00
2019-05-03T09:23:26.051Z,13.30
2019-05-03T09:25:55.613Z,13.60
2019-05-03T09:28:26.459Z,13.20
2019-05-03T09:30:55.935Z,12.90
2019-05-03T09:33:25.800Z,13.10
2019-05-03T09:35:55.203Z,13.20
2019-05-03T09:38:25.622Z,13.20
2019-05-03T09:40:55.128Z,13.00
2019-05-03T09:43:25.087Z,12.50
2019-05-03T09:45:54.814Z,12.40
2019-05-03T09:48:25.439Z,12.40
2019-05-03T09:50:55.638Z,12.30
2019-05-03T09:53:27.390Z,12.20
2019-05-03T09:55:56.664Z,12.50
2019-05-03T09:58:26.426Z,12.60
2019-05-03T10:00:55.995Z,12.70
2019-05-03T10:03:25.535Z,13.00
2019-05-03T10:05:55.396Z,13.20
2019-05-03T10:08:25.408Z,13.10
2019-05-03T10:11:15.634Z,13.00
2019-05-03T10:13:48.363Z,13.70
2019-05-03T10:16:15.834Z,14.10
2019-05-03T10:18:46.143Z,13.60
2019-05-03T10:21:15.515Z,13.50
2019-05-03T10:23:45.390Z,13.80
2019-05-03T10:26:15.163Z,14.00
2019-05-03T10:28:44.685Z,14.30
2019-05-03T10:31:14.682Z,14.40
2019-05-03T10:33:58.685Z,14.10
2019-05-03T10:36:27.961Z,14.20
2019-05-03T10:38:57.344Z,14.00
2019-05-03T10:41:26.711Z,14.10
2019-05-03T10:43:56.171Z,13.90
2019-05-03T10:46:25.606Z,13.20
2019-05-03T10:48:55.761Z,13.20
2019-05-03T10:51:27.299Z,13.20
2019-05-03T10:53:59.279Z,12.70
2019-05-03T10:56:55.927Z,12.70
2019-05-03T10:59:25.534Z,12.50
2019-05-03T11:02:32.168Z,12.80
2019-05-03T11:05:01.511Z,13.20
2019-05-03T11:07:30.814Z,13.40
2019-05-03T11:10:00.148Z,13.40
2019-05-03T11:12:29.485Z,13.50
2019-05-03T11:14:58.755Z,13.60
2019-05-03T11:17:28.014Z,13.40
2019-05-03T11:19:57.301Z,13.00
2019-05-03T11:22:26.576Z,12.60
2019-05-03T11:24:55.839Z,12.50
2019-05-03T11:27:40.156Z,12.70
2019-05-03T11:30:09.833Z,13.20
2019-05-03T11:32:55.474Z,13.50
2019-05-03T11:35:41.983Z,13.70
2019-05-03T11:38:30.282Z,13.70
2019-05-03T11:40:59.522Z,13.90
2019-05-03T11:43:28.751Z,14.10
2019-05-03T11:45:58.126Z,13.70
2019-05-03T11:48:27.379Z,12.90
2019-05-03T11:50:56.701Z,12.70
2019-05-03T11:53:25.934Z,12.40
2019-05-03T11:55:55.440Z,12.60
2019-05-03T11:58:27.122Z,12.70
2019-05-03T12:01:20.648Z,13.30
2019-05-03T12:03:51.899Z,13.00
2019-05-03T12:06:21.159Z,13.00
2019-05-03T12:08:50.398Z,13.50
2019-05-03T12:11:19.928Z,13.70
2019-05-03T12:14:01.431Z,13.60
2019-05-03T12:16:32.138Z,14.10
2019-05-03T12:18:54.060Z,14.10
2019-05-03T12:21:23.210Z,14.10
2019-05-03T12:23:55.813Z,14.50
2019-05-03T12:26:27.138Z,14.50
2019-05-03T12:28:55.055Z,14.30
2019-05-03T12:31:36.329Z,14.50
2019-05-03T12:33:55.359Z,14.00
2019-05-03T12:36:24.809Z,13.60
2019-05-03T12:38:54.779Z,14.00
2019-05-03T12:41:25.438Z,14.60
2019-05-03T12:43:55.292Z,14.40
2019-05-03T12:46:26.194Z,13.80
2019-05-03T12:48:56.106Z,12.90
2019-05-03T12:51:25.877Z,12.60
2019-05-03T12:53:55.402Z,12.50
2019-05-03T12:56:32.334Z,12.70
2019-05-03T12:59:02.028Z,13.10
2019-05-03T13:01:48.214Z,13.20
2019-05-03T13:04:20.652Z,13.10
2019-05-03T13:06:56.554Z,13.80
2019-05-03T13:09:26.116Z,13.90
2019-05-03T13:11:59.162Z,14.00
2019-05-03T13:14:27.748Z,13.70
2019-05-03T13:16:57.231Z,13.90
2019-05-03T13:19:26.612Z,14.30
2019-05-03T13:21:56.224Z,14.20
2019-05-03T13:24:26.101Z,14.10
2019-05-03T13:26:55.578Z,13.90
2019-05-03T13:29:25.605Z,13.60
2019-05-03T13:32:01.620Z,13.30
2019-05-03T13:34:26.592Z,13.40
2019-05-03T13:36:56.327Z,13.80
2019-05-03T13:39:27.607Z,14.10
2019-05-03T13:41:57.933Z,14.30
2019-05-03T13:44:27.462Z,14.30
2019-05-03T13:46:56.920Z,14.50
2019-05-03T13:49:26.694Z,14.90
2019-05-03T13:51:56.232Z,15.00
2019-05-03T13:54:25.679Z,14.60
2019-05-03T13:56:55.340Z,14.50
2019-05-03T13:59:24.809Z,14.10
2019-05-03T14:01:54.714Z,14.00
2019-05-03T14:04:24.547Z,13.70
2019-05-03T14:06:55.232Z,13.90
2019-05-03T14:09:25.138Z,14.10
2019-05-03T14:11:55.874Z,14.40
2019-05-03T14:14:25.842Z,14.50
2019-05-03T14:16:55.680Z,14.70
2019-05-03T14:19:31.780Z,14.60
2019-05-03T14:22:05.188Z,14.70
2019-05-03T14:24:35.170Z,14.70
2019-05-03T14:27:05.564Z,13.80
2019-05-03T14:29:35.123Z,13.60
2019-05-03T14:32:05.285Z,13.60
2019-05-03T14:34:35.930Z,13.90
2019-05-03T14:37:05.496Z,14.40
2019-05-03T14:39:35.137Z,14.70
2019-05-03T14:42:04.865Z,14.60
2019-05-03T14:44:35.703Z,14.70
2019-05-03T14:47:05.814Z,14.80
2019-05-03T14:49:35.525Z,15.50
2019-05-03T14:52:05.540Z,15.60
2019-05-03T14:54:36.623Z,15.70
2019-05-03T14:57:14.553Z,15.30
2019-05-03T15:00:12.263Z,15.00
2019-05-03T15:02:51.092Z,14.50
2019-05-03T15:05:21.080Z,14.20
2019-05-03T15:07:50.520Z,14.10
2019-05-03T15:10:20.300Z,14.30
2019-05-03T15:12:49.771Z,14.40
2019-05-03T15:15:19.426Z,14.20
2019-05-03T15:17:49.067Z,14.50
2019-05-03T15:20:18.478Z,14.70
2019-05-03T15:22:47.930Z,14.60
2019-05-03T15:25:17.453Z,15.00
2019-05-03T15:27:48.586Z,14.70
2019-05-03T15:30:18.968Z,14.80
2019-05-03T15:32:57.671Z,15.20
2019-05-03T15:35:19.357Z,15.10
2019-05-03T15:37:48.560Z,14.90
2019-05-03T15:40:17.930Z,14.80
2019-05-03T15:42:54.656Z,14.80
2019-05-03T15:45:58.406Z,14.80
2019-05-03T15:48:35.061Z,14.90
2019-05-03T15:51:04.809Z,15.30
2019-05-03T15:53:35.346Z,15.60
2019-05-03T15:56:05.364Z,15.70
2019-05-03T15:58:34.782Z,15.20
2019-05-03T16:01:04.718Z,14.70
2019-05-03T16:03:35.758Z,14.80
2019-05-03T16:06:05.423Z,14.50
2019-05-03T16:08:34.723Z,14.10
2019-05-03T16:11:05.381Z,14.40
2019-05-03T16:13:35.544Z,14.20
2019-05-03T16:16:06.461Z,14.20
2019-05-03T16:18:35.822Z,14.30
2019-05-03T16:21:05.114Z,14.20
2019-05-03T16:23:34.442Z,14.30
2019-05-03T16:26:04.985Z,14.40
2019-05-03T16:28:51.238Z,14.40
2019-05-03T16:31:22.058Z,14.70
2019-05-03T16:33:51.303Z,15.20
2019-05-03T16:36:20.568Z,15.40
2019-05-03T16:38:49.932Z,15.10
2019-05-03T16:41:19.284Z,14.40
2019-05-03T16:44:07.607Z,14.10
2019-05-03T16:46:37.026Z,14.00
2019-05-03T16:49:06.528Z,14.00
2019-05-03T16:51:36.018Z,13.90
2019-05-03T16:54:05.390Z,13.70
2019-05-03T16:56:35.298Z,13.70
2019-05-03T16:59:05.759Z,13.60
2019-05-03T17:01:35.402Z,13.40
2019-05-03T17:04:30.286Z,13.30
2019-05-03T17:07:15.251Z,12.80
2019-05-03T17:10:07.502Z,12.70
2019-05-03T17:12:37.117Z,12.60
2019-05-03T17:15:07.402Z,12.50
2019-05-03T17:17:38.796Z,12.40
2019-05-03T17:20:08.505Z,12.80
2019-05-03T17:22:37.800Z,13.00
2019-05-03T17:25:07.162Z,13.20
2019-05-03T17:27:36.497Z,13.00
2019-05-03T17:30:06.415Z,13.00
2019-05-03T17:32:35.722Z,12.90
2019-05-03T17:35:05.415Z,12.70
2019-05-03T17:37:34.919Z,12.70
2019-05-03T17:40:21.689Z,12.50
2019-05-03T17:43:14.620Z,12.50
2019-05-03T17:45:47.553Z,12.50
2019-05-03T17:48:16.952Z,12.60
2019-05-03T17:50:46.205Z,12.50
2019-05-03T17:53:54.572Z,12.40
2019-05-03T17:56:28.744Z,12.40
2019-05-03T17:59:04.626Z,12.20
2019-05-03T18:01:53.022Z,12.10
2019-05-03T18:04:32.647Z,12.10
2019-05-03T18:07:24.293Z,11.90
2019-05-03T18:09:55.365Z,11.70
2019-05-03T18:12:24.878Z,11.70
2019-05-03T18:14:55.406Z,11.70
2019-05-03T18:17:24.949Z,11.50
2019-05-03T18:19:55.316Z,11.40
2019-05-03T18:22:24.807Z,11.40
2019-05-03T18:24:54.660Z,11.30
2019-05-03T18:27:25.053Z,11.20
2019-05-03T18:29:55.441Z,11.10
2019-05-03T18:32:25.164Z,11.10
2019-05-03T18:34:54.784Z,11.00
2019-05-03T18:37:24.531Z,10.90
2019-05-03T18:39:54.635Z,11.00
2019-05-03T18:42:35.200Z,11.00
2019-05-03T18:45:11.564Z,10.90
2019-05-03T18:47:40.827Z,10.80
2019-05-03T18:50:10.354Z,10.80
2019-05-03T18:52:39.614Z,10.90
2019-05-03T18:55:08.954Z,10.80
2019-05-03T18:57:38.373Z,10.70
2019-05-03T19:00:08.994Z,10.70
2019-05-03T19:02:38.477Z,10.90
2019-05-03T19:05:08.344Z,10.90
2019-05-03T19:07:54.684Z,10.80
2019-05-03T19:10:44.517Z,11.20
2019-05-03T19:13:36.358Z,11.30
2019-05-03T19:16:24.644Z,11.40
2019-05-03T19:18:55.021Z,11.50
2019-05-03T19:21:24.476Z,11.50
2019-05-03T19:23:53.710Z,11.60
2019-05-03T19:26:24.774Z,11.60
2019-05-03T19:28:54.973Z,11.50
2019-05-03T19:31:25.222Z,11.40
2019-05-03T19:33:55.080Z,11.10
2019-05-03T19:36:24.537Z,10.60
2019-05-03T19:38:54.609Z,10.60
2019-05-03T19:41:25.202Z,10.30
2019-05-03T19:43:55.024Z,10.30
2019-05-03T19:46:24.817Z,10.20
2019-05-03T19:48:54.696Z,10.20
2019-05-03T19:51:24.223Z,10.30
2019-05-03T19:53:55.260Z,10.30
2019-05-03T19:56:25.674Z,10.20
2019-05-03T19:59:04.672Z,9.90
2019-05-03T20:02:08.106Z,9.70
2019-05-03T20:05:00.726Z,9.50
2019-05-03T20:07:39.067Z,9.60
2019-05-03T20:10:08.952Z,9.60
2019-05-03T20:12:38.218Z,9.60
2019-05-03T20:15:07.559Z,9.70
2019-05-03T20:17:36.856Z,9.50
2019-05-03T20:20:06.807Z,9.40
2019-05-03T20:22:35.967Z,9.40
2019-05-03T20:25:05.387Z,9.40
2019-05-03T20:27:35.174Z,9.50
2019-05-03T20:30:06.479Z,9.60
2019-05-03T20:32:35.915Z,9.70
2019-05-03T20:35:16.586Z,9.60
2019-05-03T20:37:36.605Z,9.90
2019-05-03T20:40:06.669Z,10.50
2019-05-03T20:43:07.114Z,10.70
2019-05-03T20:45:54.746Z,10.60
2019-05-03T20:48:24.987Z,10.50
2019-05-03T20:50:57.478Z,10.20
2019-05-03T20:53:26.764Z,9.70
2019-05-03T20:55:56.051Z,9.40
2019-05-03T20:58:25.317Z,9.20
2019-05-03T21:00:54.714Z,9.10
2019-05-03T21:03:24.795Z,8.90
2019-05-03T21:05:55.277Z,8.80
2019-05-03T21:08:25.488Z,8.60
2019-05-03T21:10:55.227Z,8.40
2019-05-03T21:13:25.247Z,8.40
2019-05-03T21:16:30.097Z,8.30
2019-05-03T21:19:08.018Z,8.20
2019-05-03T21:22:02.553Z,8.20
2019-05-03T21:24:45.347Z,8.40
2019-05-03T21:27:14.603Z,8.50
2019-05-03T21:29:51.750Z,8.60
2019-05-03T21:32:21.174Z,8.70
2019-05-03T21:34:50.926Z,8.70
2019-05-03T21:37:20.225Z,8.70
2019-05-03T21:39:49.496Z,8.80
2019-05-03T21:42:18.805Z,8.70
2019-05-03T21:44:48.123Z,8.70
2019-05-03T21:47:51.771Z,8.80
2019-05-03T21:50:21.551Z,8.80
2019-05-03T21:52:50.909Z,8.90
2019-05-03T21:55:20.218Z,8.80
2019-05-03T21:57:49.586Z,8.80
2019-05-03T22:00:19.181Z,8.80
2019-05-03T22:02:48.582Z,8.80
2019-05-03T22:05:18.015Z,8.80
2019-05-03T22:07:47.388Z,8.80
2019-05-03T22:10:16.842Z,8.70
2019-05-03T22:12:46.185Z,8.70
2019-05-03T22:15:26.495Z,8.70
2019-05-03T22:18:11.483Z,8.60
2019-05-03T22:20:48.428Z,8.60
2019-05-03T22:23:38.502Z,8.50
2019-05-03T22:26:07.994Z,8.40
2019-05-03T22:28:37.430Z,8.50
2019-05-03T22:31:06.948Z,8.50
2019-05-03T22:33:36.327Z,8.50
2019-05-03T22:36:08.986Z,8.50
2019-05-03T22:38:38.519Z,8.50
2019-05-03T22:41:08.029Z,8.60
2019-05-03T22:43:37.429Z,8.50
2019-05-03T22:46:06.790Z,8.50
2019-05-03T22:48:36.122Z,8.30
2019-05-03T22:51:05.402Z,8.40
2019-05-03T22:53:34.657Z,8.40
2019-05-03T22:56:04.892Z,8.40
2019-05-03T22:58:35.454Z,8.30
2019-05-03T23:01:04.870Z,8.00
2019-05-03T23:03:44.648Z,7.90
2019-05-03T23:06:21.985Z,7.70
2019-05-03T23:08:44.886Z,7.60
2019-05-03T23:11:15.022Z,7.60
2019-05-03T23:13:47.331Z,7.50
2019-05-03T23:16:16.592Z,7.40
2019-05-03T23:18:45.730Z,7.40
2019-05-03T23:21:20.385Z,7.50
2019-05-03T23:23:50.631Z,7.50
2019-05-03T23:26:19.925Z,7.50
2019-05-03T23:28:49.280Z,7.50
2019-05-03T23:31:18.542Z,7.50
2019-05-03T23:33:47.730Z,7.60
2019-05-03T23:36:16.928Z,7.70
2019-05-03T23:38:46.166Z,7.90
2019-05-03T23:41:15.467Z,7.90
2019-05-03T23:43:45.065Z,7.90
2019-05-03T23:46:16.275Z,7.90
2019-05-03T23:48:45.585Z,7.90
2019-05-03T23:51:32.467Z,7.90
2019-05-03T23:54:02.779Z,8.00
2019-05-03T23:56:32.139Z,8.10
2019-05-03T23:59:01.400Z,8.10
